This is the latest recevied weather packets stored in our database for station/object N4AN. If no packets are shown the sender has not sent any weather packets the latest 10 day(s).
| Time | Temp. | Humidity | Pressure | Rain* | Wind** | Luminosity | Snow |
|---|---|---|---|---|---|---|---|
| 1788027031 | 26.67° C | 86% | 1012.9 hPa | 1.27 mm | - | - | - |
| 1788027030 | 26.11° C | 87% | 1012.9 hPa | 1.27 mm | - | - | - |
| 1788026973 | 26.67° C | 86% | 1012.9 hPa | 1.27 mm | - | - | - |
| 1788026973 | 26.11° C | 87% | 1012.9 hPa | 1.27 mm | - | - | - |
| 1788026198 | 26.67° C | 86% | 1012.9 hPa | 0 mm | - | - | - |
| 1788025898 | 26.67° C | 86% | 1012.9 hPa | 0 mm | - | - | - |
| 1788025595 | 26.67° C | 86% | 1013.1 hPa | 1.02 mm | - | - | - |
| 1788025295 | 26.67° C | 85% | 1013.3 hPa | 1.27 mm | - | - | - |
| 1788024992 | 26.67° C | 85% | 1013.5 hPa | 2.29 mm | - | - | - |
| 1788024391 | 26.67° C | 83% | 1013.8 hPa | 2.03 mm | - | - | - |
| 1788024090 | 26.67° C | 81% | 1013.7 hPa | 2.03 mm | - | - | - |
| 1788023790 | 26.67° C | 81% | 1013.5 hPa | 2.03 mm | - | - | - |
| 1788023490 | 27.22° C | 81% | 1013.4 hPa | 0 mm | - | - | - |
| 1788023189 | 27.22° C | 80% | 1013.4 hPa | 0 mm | - | - | - |
| 1788022889 | 27.78° C | 79% | 1013.4 hPa | 0 mm | - | - | - |
| 1788022589 | 28.33° C | 77% | 1013.2 hPa | 0 mm | - | - | - |
| 1788022289 | 29.44° C | 76% | 1013 hPa | 0 mm | - | - | - |
| 1788021988 | 29.44° C | 76% | 1013 hPa | 0 mm | - | - | - |
| 1788021688 | 30° C | 76% | 1012.9 hPa | 0 mm | - | - | - |
| 1788021387 | 29.44° C | 76% | 1012.6 hPa | 0 mm | - | - | - |
| 1788021084 | 30° C | 76% | 1012.5 hPa | 0 mm | - | - | - |
| 1788020784 | 29.44° C | 78% | 1012.5 hPa | 0 mm | - | - | - |
| 1788020484 | 28.89° C | 80% | 1012.3 hPa | 0 mm | - | - | - |
| 1788020183 | 27.78° C | 84% | 1012.4 hPa | 0 mm | - | - | - |
| 1788019883 | 27.22° C | 85% | 1012.4 hPa | 0 mm | - | - | - |
* Rain latest hour (hover to see other rain measurements)
** Current wind speed in m/s (hover to see current wind gust speed)